• Join FlightAware (Why Join?)
  • Login
  • US Flag 
03:23PM EDT


 

Airport Tracker/Info


-or-


 

Live Flight TrackerFlight Track Log ✈ AFL110 ✈ 27-Aug-2013 ✈ UUEE / SVO - KMIA

Flight Track Log - Related Links

Times and Time Zones

All times are in EDT time to prevent confusion due to time zone crossing. See the AFL110 flight status page for this flight to view local times or setup timezone preferences in your user account.

Time Position Orientation Groundspeed Altitude Reporting Facility
EDT Latitude Longitude Course Direction KTS MPH feet Rate Location/Type
02:51PM 27.3356 -79.3419 198° South 430 495 27,100  Level Miami Center
02:56PM 26.7410 -79.5580 209° Southwest 383 441 20,400 -1,260 Descending FlightAware
02:57PM 26.6900 -79.5900 209° Southwest 378 435 19,900 -1,140 Descending FlightAware
02:57PM 26.6400 -79.6220 210° Southwest 380 437 19,200 -1,500 Descending FlightAware
02:58PM 26.5840 -79.6570 209° Southwest 377 434 18,200 -1,800 Descending FlightAware
02:58PM 26.5280 -79.6920 209° Southwest 379 436 17,000 -1,800 Descending FlightAware
02:59PM 26.4800 -79.7240 211° Southwest 375 432 16,100 -1,380 Descending FlightAware
02:59PM 26.4580 -79.7460 222° Southwest 373 429 15,900 -240 Descending FlightAware
03:00PM 26.4250 -79.8040 238° Southwest 377 434 15,900  Level FlightAware
03:00PM 26.3950 -79.8580 238° Southwest 380 437 15,900 -720 Level FlightAware
03:01PM 26.3510 -79.9120 228° Southwest 372 428 15,100 -1,620 Descending FlightAware
03:01PM 26.3080 -79.9570 223° Southwest 371 427 14,000 -1,800 Descending FlightAware
03:02PM 26.2600 -80.0060 222° Southwest 358 412 13,000 -1,680 Descending FlightAware
03:02PM 26.2460 -80.0150 210° Southwest 354 407 12,700 -1,260 Descending FlightAware
03:03PM 26.1880 -80.0320 195° South 339 390 12,000 -1,320 Descending FlightAware
03:03PM 26.1390 -80.0460 194° South 335 386 11,200 -1,620 Descending FlightAware
03:04PM 26.0840 -80.0610 194° South 334 384 10,200 -1,140 Descending FlightAware
03:05PM 26.0450 -80.0760 199° South 319 367 10,000 -420 Descending FlightAware
03:05PM 26.0180 -80.0900 205° Southwest 305 351 9,900 -840 Descending FlightAware
03:05PM 25.9890 -80.1060 206° Southwest 302 348 9,400 -1,260 Descending FlightAware
03:06PM 25.9630 -80.1190 204° Southwest 303 349 9,000 -1,200 Descending FlightAware
03:06PM 25.9380 -80.1320 205° Southwest 303 349 8,600 -1,020 Descending FlightAware
03:06PM 25.9090 -80.1470 205° Southwest 301 346 8,300 -900 Descending FlightAware
03:06PM 25.8950 -80.1550 207° Southwest 299 344 8,100 -720 Descending FlightAware
03:07PM 25.8660 -80.1710 206° Southwest 301 346 7,900 -300 Descending FlightAware
03:07PM 25.8400 -80.1850 206° Southwest 300 345 7,900  Level FlightAware
03:07PM 25.8200 -80.1960 206° Southwest 300 345 7,900  Level FlightAware
03:08PM 25.7900 -80.2120 206° Southwest 301 346 7,900  Level FlightAware
03:08PM 25.7600 -80.2280 206° Southwest 290 334 7,900  Level FlightAware
03:09PM 25.7360 -80.2410 206° Southwest 272 313 7,900 -240 Level FlightAware
03:09PM 25.7230 -80.2480 206° Southwest 266 306 7,800 -540 Descending FlightAware
03:09PM 25.6970 -80.2630 207° Southwest 256 295 7,600 -960 Descending FlightAware
03:10PM 25.6780 -80.2780 215° Southwest 255 293 7,100 -1,740 Descending FlightAware
03:10PM 25.6750 -80.2860 247° West 256 295 6,800 -2,220 Descending FlightAware
03:10PM 25.6720 -80.2930 245° Southwest 256 295 6,700 -1,800 Descending FlightAware
03:10PM 25.6710 -80.3010 262° West 255 293 6,500 -1,800 Descending FlightAware
03:10PM 25.6700 -80.3240 267° West 252 290 6,000 -1,620 Descending FlightAware
03:10PM 25.6710 -80.3470 273° West 249 287 5,500 -1,620 Descending FlightAware
03:11PM 25.6710 -80.3550 270° West 249 287 5,300 -1,320 Descending FlightAware
03:11PM 25.6740 -80.3940 275° West 241 277 4,700 -1,020 Descending FlightAware
03:12PM 25.6750 -80.4260 272° West 241 277 4,400 -960 Descending FlightAware
03:12PM 25.6810 -80.4490 286° West 237 273 4,000 -1,200 Descending FlightAware
03:12PM 25.6840 -80.4550 299° West 233 268 3,900 -840 Descending FlightAware
03:12PM 25.6920 -80.4610 326° Northwest 229 264 3,800 -900 Descending FlightAware
03:12PM 25.6980 -80.4640 336° Northwest 225 259 3,700 -780 Descending FlightAware
03:13PM 25.7180 -80.4710 342° North 222 255 3,500 -840 Descending FlightAware
03:13PM 25.7430 -80.4800 342° North 217 250 3,100 -840 Descending FlightAware
03:13PM 25.7480 -80.4800 360° North 212 244 3,100 -420 Level FlightAware
03:13PM 25.7680 -80.4670 30° Northeast 196 226 2,900 -840 Descending FlightAware
03:14PM 25.7770 -80.4480 62° Northeast 197 227 2,500 -1,260 Descending FlightAware
03:14PM 25.7810 -80.4370 68° East 200 230 2,200 -1,500 Descending FlightAware
03:14PM 25.7820 -80.4290 82° East 194 223 2,000 -1,500 Descending FlightAware
03:14PM 25.7820 -80.4130 90° East 190 219 1,600 -1,080 Descending FlightAware
03:15PM 25.7830 -80.3910 87° East 169 194 1,300 -780 Descending FlightAware
03:15PM 25.7840 -80.3720 87° East 151 174 1,000 -780 Descending FlightAware
03:16PM 25.7840 -80.3560 90° East 134 154 700 -720 Descending FlightAware
03:16PM 25.7850 -80.3420 85° East 128 147 500 -660 Descending FlightAware
03:16PM 25.7860 -80.3270 86° East 131 151 200 -720 Descending FlightAware
03:17PM 25.7860 -80.3140 90° East 131 151 -600 Descending FlightAware
03:17PM 25.7870 -80.2980 86° East 131 151  Level FlightAware